Time;durP1;ratioP1;P1;durP2;ratioP2;P2;SDS_P1;SDS_P2;PMS_P1;PMS_P2;Temp;Humidity;BMP_temperature;BMP_pressure;BME280_temperature;BME280_humidity;BME280_pressure;Samples;Min_cycle;Max_cycle;Signal;HPM_P1;HPM_P2
2021/12/21 00:00:29;;;;;;;;;21.75;20.75;;;;;6.34;53.31;102024.69;5062306;28;45864;-68
2021/12/21 00:02:55;;;;;;;;;23.50;21.50;;;;;6.32;53.20;102028.06;5061197;28;45374;-68
2021/12/21 00:05:27;;;;;;;;;28.50;19.00;;;;;6.24;52.92;102012.16;5063260;28;45614;-66
2021/12/21 00:07:54;;;;;;;;;21.00;19.50;;;;;6.29;53.49;102030.56;5062468;28;45450;-68
2021/12/21 00:10:23;;;;;;;;;19.50;18.25;;;;;6.30;53.57;102034.91;5064760;28;45964;-67
2021/12/21 00:15:39;;;;;;;;;25.50;20.25;;;;;6.28;52.87;102010.53;5059511;28;45898;-69
2021/12/21 00:20:48;;;;;;;;;27.50;19.50;;;;;6.17;53.60;101999.72;5059788;28;45898;-67
2021/12/21 00:26:08;;;;;;;;;24.50;18.00;;;;;6.22;53.83;102005.13;5070275;27;45529;-68
2021/12/21 00:28:44;;;;;;;;;22.75;19.50;;;;;6.20;53.46;101997.22;5078113;27;45552;-66
2021/12/21 00:31:09;;;;;;;;;21.00;19.25;;;;;6.28;53.49;102006.22;5077987;28;45507;-67
2021/12/21 00:33:38;;;;;;;;;21.25;15.50;;;;;6.13;52.98;101983.09;5079696;28;45436;-67
2021/12/21 00:36:04;;;;;;;;;19.25;18.25;;;;;6.24;53.29;102006.03;5072046;28;45530;-67
2021/12/21 00:38:30;;;;;;;;;19.50;17.00;;;;;6.21;52.93;101996.41;5080098;28;45337;-67
2021/12/21 00:40:55;;;;;;;;;21.50;15.00;;;;;6.13;53.06;101993.50;5079292;28;46180;-67
2021/12/21 00:43:21;;;;;;;;;18.75;15.25;;;;;6.14;53.00;101990.06;5074079;28;45532;-68
2021/12/21 00:45:47;;;;;;;;;18.25;17.50;;;;;6.14;53.48;101996.97;5075042;28;45416;-67
2021/12/21 00:48:15;;;;;;;;;11.00;11.00;;;;;6.06;53.08;101993.19;5075742;28;45344;-67
2021/12/21 00:50:40;;;;;;;;;19.00;14.75;;;;;6.10;53.47;101995.09;5087726;27;47061;-67
2021/12/21 00:53:07;;;;;;;;;18.00;16.50;;;;;6.11;53.02;102002.06;5074178;28;45350;-66
2021/12/21 00:55:32;;;;;;;;;24.25;18.25;;;;;6.04;53.84;102000.03;5074561;27;45908;-67
2021/12/21 00:57:58;;;;;;;;;24.75;17.25;;;;;6.02;53.51;101992.16;5075143;27;46507;-67
2021/12/21 01:00:24;;;;;;;;;16.00;14.00;;;;;6.10;53.22;101998.59;5074303;28;46090;-67
2021/12/21 01:02:50;;;;;;;;;19.25;18.50;;;;;6.10;53.65;101998.59;5070663;28;45336;-69
2021/12/21 01:05:32;;;;;;;;;17.25;16.25;;;;;6.05;53.62;101996.59;5075182;28;45506;-68
2021/12/21 01:08:00;;;;;;;;;20.00;17.75;;;;;6.06;53.49;101994.06;5077155;27;45449;-67
2021/12/21 01:13:14;;;;;;;;;20.00;16.25;;;;;6.02;53.04;101983.47;5075732;27;45418;-69
2021/12/21 01:18:17;;;;;;;;;16.50;14.00;;;;;6.03;53.09;101987.88;5076228;27;45493;-68
2021/12/21 01:20:50;;;;;;;;;15.75;15.75;;;;;5.95;53.59;101980.63;5075439;27;45662;-68
2021/12/21 01:23:51;;;;;;;;;21.25;18.00;;;;;5.95;53.82;101988.41;5075482;27;45390;-68
2021/12/21 01:26:26;;;;;;;;;16.75;14.75;;;;;5.95;53.27;101978.00;5075418;27;45394;-68
2021/12/21 01:32:00;;;;;;;;;18.00;14.75;;;;;5.98;53.23;101972.09;5051714;27;45936;-68
2021/12/21 01:34:41;;;;;;;;;21.25;17.00;;;;;5.95;53.16;101978.00;5075258;27;45437;-69
2021/12/21 01:42:37;;;;;;;;;21.25;16.00;;;;;5.90;53.60;101982.13;5075580;27;45601;-68
2021/12/21 01:51:36;;;;;;;;;18.50;14.50;;;;;5.89;53.40;101982.06;5081008;28;45459;-69
2021/12/21 01:54:05;;;;;;;;;22.75;19.00;;;;;5.89;53.35;101976.88;5077918;27;46312;-68
2021/12/21 01:56:32;;;;;;;;;19.25;16.25;;;;;5.85;53.18;101977.56;5072767;28;45494;-68
2021/12/21 01:58:58;;;;;;;;;16.50;14.00;;;;;5.82;53.06;101980.94;5075754;28;45364;-68
2021/12/21 02:01:27;;;;;;;;;22.00;17.00;;;;;5.76;53.31;101965.06;5074586;27;45399;-69
2021/12/21 02:03:54;;;;;;;;;19.00;15.50;;;;;5.81;53.38;101981.72;5074526;27;46608;-68
2021/12/21 02:06:26;;;;;;;;;21.00;17.50;;;;;5.85;53.30;101983.63;5074821;28;45516;-68
2021/12/21 02:08:52;;;;;;;;;21.00;15.75;;;;;5.90;53.57;101978.63;5078962;27;45503;-68
2021/12/21 02:11:19;;;;;;;;;19.25;17.00;;;;;5.86;53.24;101974.13;5078279;28;45316;-67
2021/12/21 02:13:48;;;;;;;;;18.00;18.00;;;;;5.87;53.11;101974.19;5075488;27;45493;-67
2021/12/21 02:16:21;;;;;;;;;17.50;14.75;;;;;5.90;53.08;101970.84;5079315;27;45590;-69
2021/12/21 02:18:54;;;;;;;;;21.50;17.00;;;;;5.81;52.89;101960.06;5078578;27;45733;-68
2021/12/21 02:21:46;;;;;;;;;16.50;16.25;;;;;5.77;53.85;101952.97;5076517;27;45460;-67
2021/12/21 02:24:11;;;;;;;;;19.50;17.00;;;;;5.82;53.96;101964.44;5079685;28;45331;-68
2021/12/21 02:26:43;;;;;;;;;18.00;17.00;;;;;5.83;53.57;101963.59;5078914;28;45684;-71
2021/12/21 02:29:12;;;;;;;;;17.50;17.00;;;;;5.88;53.63;101960.34;5078383;28;45235;-69
2021/12/21 02:31:39;;;;;;;;;19.75;15.50;;;;;5.78;53.08;101947.81;5076153;27;45573;-68
2021/12/21 02:34:07;;;;;;;;;24.25;19.00;;;;;5.80;53.83;101953.09;5074442;28;46260;-69
2021/12/21 02:36:35;;;;;;;;;19.25;17.50;;;;;5.76;53.46;101952.06;5073922;28;45326;-68
2021/12/21 02:39:03;;;;;;;;;19.25;17.25;;;;;5.67;53.11;101941.28;5076561;27;45749;-69
2021/12/21 02:41:29;;;;;;;;;21.50;16.75;;;;;5.69;53.53;101940.50;5079420;27;45355;-69
2021/12/21 02:43:56;;;;;;;;;16.00;16.00;;;;;5.74;53.93;101943.31;5079048;27;45274;-68
2021/12/21 02:46:23;;;;;;;;;20.25;16.25;;;;;5.61;53.85;101921.13;5090110;27;45353;-68
2021/12/21 02:48:49;;;;;;;;;19.00;16.00;;;;;5.76;53.56;101940.78;5074385;27;45483;-69
2021/12/21 02:51:15;;;;;;;;;14.25;11.75;;;;;5.78;53.62;101936.53;5074833;27;45644;-69
2021/12/21 02:53:41;;;;;;;;;22.25;16.25;;;;;5.76;53.46;101928.66;5076316;27;46332;-67
2021/12/21 02:56:07;;;;;;;;;19.00;14.75;;;;;5.78;53.37;101920.94;5078359;27;45623;-68
2021/12/21 02:58:32;;;;;;;;;19.75;18.00;;;;;5.85;53.16;101930.75;5078582;27;45353;-69
2021/12/21 03:00:58;;;;;;;;;19.25;15.25;;;;;5.83;52.95;101928.09;5075034;27;45445;-68
2021/12/21 03:03:26;;;;;;;;;20.00;16.75;;;;;5.78;53.36;101919.22;5075317;28;45971;-67
2021/12/21 03:05:55;;;;;;;;;19.00;14.75;;;;;5.78;53.60;101918.34;5075788;27;45391;-67
2021/12/21 03:08:23;;;;;;;;;18.25;14.25;;;;;5.77;52.73;101927.84;5079854;27;45479;-68
2021/12/21 03:11:06;;;;;;;;;17.75;15.00;;;;;5.77;53.11;101926.97;5079130;27;45514;-67
2021/12/21 03:14:05;;;;;;;;;16.00;15.25;;;;;5.66;53.64;101908.31;5078208;27;45863;-67
2021/12/21 03:16:24;;;;;;;;;21.00;18.75;;;;;5.76;53.10;101923.47;5077591;27;45312;-69
2021/12/21 03:18:51;;;;;;;;;17.25;14.00;;;;;5.63;53.68;101913.41;5081939;27;45594;-68
2021/12/21 03:21:17;;;;;;;;;20.50;17.25;;;;;5.70;53.62;101925.84;5077653;28;45483;-68
2021/12/21 03:23:43;;;;;;;;;21.75;17.25;;;;;5.69;54.01;101931.84;5077516;28;46251;-68
2021/12/21 03:26:09;;;;;;;;;16.75;14.75;;;;;5.67;54.28;101926.59;5077701;28;45485;-69
2021/12/21 03:28:34;;;;;;;;;25.75;19.75;;;;;5.64;53.99;101926.44;5079525;27;45503;-68
2021/12/21 03:31:00;;;;;;;;;20.50;20.50;;;;;5.66;54.63;101929.13;5078864;27;45297;-67
2021/12/21 03:33:26;;;;;;;;;21.25;19.00;;;;;5.67;54.92;101928.28;5077378;27;45749;-69
2021/12/21 03:35:51;;;;;;;;;20.50;17.50;;;;;5.63;54.41;101929.00;5077701;27;45442;-69
2021/12/21 03:38:17;;;;;;;;;28.75;21.25;;;;;5.58;54.84;101927.94;5077623;27;45647;-67
2021/12/21 03:40:44;;;;;;;;;29.75;23.00;;;;;5.52;55.25;101926.81;5078008;28;45358;-68
2021/12/21 03:43:10;;;;;;;;;25.00;19.25;;;;;5.47;55.49;101922.28;5077785;27;46262;-68
2021/12/21 03:45:42;;;;;;;;;29.75;24.25;;;;;5.40;55.15;101920.25;5067852;27;45483;-68
2021/12/21 03:48:12;;;;;;;;;22.00;19.00;;;;;5.36;55.58;101918.34;5059259;28;45511;-67
2021/12/21 03:50:38;;;;;;;;;21.00;17.00;;;;;5.29;56.01;101920.69;5057908;28;45457;-68
2021/12/21 03:53:04;;;;;;;;;18.25;18.00;;;;;5.25;55.78;101904.91;5056739;28;45419;-68
2021/12/21 03:55:30;;;;;;;;;23.75;17.75;;;;;5.41;55.44;101922.91;5078764;27;45404;-68
2021/12/21 03:57:55;;;;;;;;;21.00;19.50;;;;;5.38;55.79;101919.28;5077778;28;45272;-69
2021/12/21 04:00:22;;;;;;;;;21.25;17.00;;;;;5.27;55.54;101903.25;5077341;28;45307;-67
2021/12/21 04:02:48;;;;;;;;;20.00;17.50;;;;;5.28;55.50;101933.59;5076853;27;46193;-67
2021/12/21 04:05:14;;;;;;;;;14.75;13.25;;;;;5.22;56.69;101935.91;5077194;27;45447;-68
2021/12/21 04:07:41;;;;;;;;;22.00;17.75;;;;;5.25;55.79;101926.56;5080722;27;45396;-67
2021/12/21 04:10:07;;;;;;;;;16.25;15.00;;;;;5.12;56.11;101912.97;5081462;28;45263;-69
2021/12/21 04:12:33;;;;;;;;;21.25;20.00;;;;;5.21;55.94;101923.78;5074981;27;45631;-67
2021/12/21 04:15:02;;;;;;;;;19.00;16.00;;;;;5.21;56.18;101922.06;5072549;28;45406;-68
2021/12/21 04:17:27;;;;;;;;;16.50;16.00;;;;;5.24;56.33;101921.28;5055232;28;45400;-69
2021/12/21 04:19:53;;;;;;;;;19.00;15.75;;;;;5.22;55.80;101922.94;5056409;28;45404;-66
2021/12/21 04:22:20;;;;;;;;;24.00;19.00;;;;;5.13;56.27;101894.00;5056148;28;46484;-68
2021/12/21 04:24:46;;;;;;;;;17.25;15.25;;;;;5.21;56.08;101918.56;5056571;28;45505;-68
2021/12/21 04:27:12;;;;;;;;;15.50;15.25;;;;;5.13;56.19;101914.78;5061637;28;45472;-67
2021/12/21 04:29:38;;;;;;;;;22.75;18.50;;;;;5.14;56.42;101911.34;5058524;28;45307;-69
2021/12/21 04:32:04;;;;;;;;;20.00;19.00;;;;;5.09;56.49;101913.75;5055865;28;45507;-68
2021/12/21 04:34:30;;;;;;;;;18.00;17.25;;;;;5.07;56.85;101915.38;5071740;28;45459;-67
2021/12/21 04:36:56;;;;;;;;;21.75;18.50;;;;;4.94;56.70;101893.19;5057784;28;45242;-69
2021/12/21 04:39:34;;;;;;;;;17.75;15.75;;;;;5.00;57.17;101903.84;5060616;28;45240;-67
2021/12/21 04:42:00;;;;;;;;;14.75;12.00;;;;;5.06;57.41;101916.22;5060954;28;45998;-67
2021/12/21 04:44:26;;;;;;;;;18.50;15.00;;;;;5.10;57.00;101919.00;5056746;28;45859;-68
2021/12/21 04:46:51;;;;;;;;;16.25;15.50;;;;;5.07;56.57;101902.41;5061654;28;45490;-67
2021/12/21 04:49:17;;;;;;;;;15.25;14.25;;;;;5.10;57.04;101910.31;5060826;28;45338;-67
2021/12/21 04:51:43;;;;;;;;;15.25;13.25;;;;;5.08;56.61;101894.69;5057771;28;45367;-68
2021/12/21 04:54:09;;;;;;;;;19.00;14.25;;;;;5.09;57.19;101893.84;5056961;28;45558;-66
2021/12/21 04:56:35;;;;;;;;;20.75;14.25;;;;;5.08;56.61;101894.69;5075864;28;45388;-68
2021/12/21 04:59:00;;;;;;;;;16.75;15.00;;;;;5.12;57.17;101894.81;5056418;28;45367;-67
2021/12/21 05:01:26;;;;;;;;;14.25;9.75;;;;;5.07;56.55;101881.63;5055667;28;46371;-67
2021/12/21 05:03:51;;;;;;;;;14.25;13.00;;;;;5.14;56.61;101899.25;5055693;28;45225;-67
2021/12/21 05:06:19;;;;;;;;;20.50;15.75;;;;;5.10;56.54;101897.31;5057406;28;45244;-67
2021/12/21 05:08:52;;;;;;;;;21.50;19.00;;;;;5.09;57.41;101903.34;5058498;28;45810;-68
2021/12/21 05:11:19;;;;;;;;;16.00;16.00;;;;;5.03;56.84;101913.47;5059300;28;46757;-67
2021/12/21 05:13:45;;;;;;;;;16.75;15.00;;;;;4.99;57.40;101911.56;5059224;28;45361;-69
2021/12/21 05:16:11;;;;;;;;;17.00;15.50;;;;;4.77;57.49;101913.22;5055771;28;45485;-68
2021/12/21 05:18:36;;;;;;;;;17.75;15.75;;;;;4.75;57.62;101919.19;5055496;28;45338;-66
2021/12/21 05:21:03;;;;;;;;;21.75;16.25;;;;;4.74;57.72;101922.56;5055453;28;45438;-68
2021/12/21 05:23:29;;;;;;;;;20.25;16.75;;;;;4.77;57.50;101930.50;5055206;28;45437;-67
2021/12/21 05:25:55;;;;;;;;;14.25;12.75;;;;;4.73;57.25;101915.63;5055319;28;45628;-67
2021/12/21 05:28:21;;;;;;;;;20.00;15.00;;;;;4.70;57.73;101913.78;5054961;28;45454;-67
2021/12/21 05:30:47;;;;;;;;;18.00;17.00;;;;;4.59;58.12;101912.41;5055120;28;46057;-68
2021/12/21 05:33:14;;;;;;;;;15.00;12.00;;;;;4.56;58.31;101913.16;5054853;28;45696;-67
2021/12/21 05:35:40;;;;;;;;;15.25;13.50;;;;;4.57;58.51;101922.69;5056449;28;45788;-68
2021/12/21 05:38:08;;;;;;;;;14.25;13.50;;;;;4.50;58.32;101915.47;5057779;28;45397;-67
2021/12/21 05:40:42;;;;;;;;;15.25;13.50;;;;;4.52;58.19;101926.78;5054372;28;45521;-69
2021/12/21 05:43:12;;;;;;;;;16.75;14.25;;;;;4.40;58.61;101921.06;5054572;27;45596;-68
2021/12/21 05:45:38;;;;;;;;;15.25;13.25;;;;;4.43;59.02;101929.84;5054685;28;45480;-68
2021/12/21 05:48:04;;;;;;;;;13.75;12.75;;;;;4.37;58.50;101924.41;5058411;28;45389;-69
2021/12/21 05:50:29;;;;;;;;;13.50;13.50;;;;;4.33;58.59;101912.09;5054956;28;46497;-66
2021/12/21 05:52:55;;;;;;;;;19.25;14.25;;;;;4.36;58.33;101916.53;5054258;28;45540;-68
2021/12/21 05:55:21;;;;;;;;;17.00;14.25;;;;;4.31;59.29;101918.03;5054834;28;45567;-68
2021/12/21 05:57:48;;;;;;;;;20.25;14.25;;;;;4.30;58.79;101917.16;5054532;28;45362;-68
2021/12/21 06:00:18;;;;;;;;;18.00;16.00;;;;;4.27;58.99;101921.28;5055011;28;45635;-67
2021/12/21 06:02:44;;;;;;;;;19.00;15.00;;;;;4.28;59.02;101928.28;5054682;28;45417;-68
2021/12/21 06:05:09;;;;;;;;;18.25;14.50;;;;;4.08;59.36;101903.97;5054869;28;45406;-68
2021/12/21 06:07:35;;;;;;;;;16.75;14.00;;;;;4.16;59.49;101921.69;5071941;28;45915;-67
2021/12/21 06:10:10;;;;;;;;;15.50;13.25;;;;;4.25;58.81;101926.44;5055247;28;45379;-68
2021/12/21 06:12:57;;;;;;;;;40.75;33.00;;;;;4.26;59.22;101925.59;5054346;28;45452;-67
2021/12/21 06:15:33;;;;;;;;;27.25;23.50;;;;;4.21;58.54;101927.09;5056838;27;46258;-69
2021/12/21 06:26:04;;;;;;;;;15.50;14.00;;;;;4.14;58.81;101931.09;5055421;28;45789;-67
2021/12/21 06:28:31;;;;;;;;;16.00;13.50;;;;;4.09;58.82;101935.19;5065752;28;45275;-67
2021/12/21 06:30:56;;;;;;;;;13.75;13.50;;;;;3.91;59.20;101908.38;5077453;27;45299;-68
2021/12/21 06:33:22;;;;;;;;;19.50;14.00;;;;;4.00;59.34;101932.16;5079247;27;45425;-66
2021/12/21 06:35:49;;;;;;;;;17.50;13.50;;;;;4.00;59.12;101932.16;5078947;28;45357;-68
2021/12/21 06:38:14;;;;;;;;;16.75;14.25;;;;;3.85;59.50;101916.75;5079205;27;46033;-67
2021/12/21 06:40:40;;;;;;;;;17.00;13.75;;;;;3.77;59.84;101902.50;5075802;28;46356;-68
2021/12/21 06:43:11;;;;;;;;;17.00;12.75;;;;;3.86;60.20;101934.06;5075240;28;45497;-68
2021/12/21 06:53:55;;;;;;;;;18.00;15.75;;;;;3.81;60.05;101927.78;5050952;28;45332;-68
2021/12/21 06:56:21;;;;;;;;;16.50;14.00;;;;;3.82;59.49;101920.09;5074470;28;45472;-68
2021/12/21 06:58:47;;;;;;;;;22.50;15.75;;;;;3.84;59.53;101925.31;5074511;28;45648;-68
2021/12/21 07:01:16;;;;;;;;;17.50;14.00;;;;;3.79;59.67;101921.63;5073982;27;46791;-69
2021/12/21 07:03:43;;;;;;;;;16.00;14.50;;;;;3.78;60.57;101917.28;5079023;28;45327;-68
2021/12/21 07:06:10;;;;;;;;;20.00;13.25;;;;;3.69;60.54;101909.03;5078841;28;45463;-68
2021/12/21 07:08:51;;;;;;;;;17.25;14.25;;;;;3.72;60.20;101919.53;5082527;27;45525;-67
2021/12/21 07:19:31;;;;;;;;;20.25;14.00;;;;;3.67;60.02;101918.44;5057390;28;45366;-67
2021/12/21 07:21:57;;;;;;;;;15.50;14.75;;;;;3.69;60.36;101929.78;5053597;28;45461;-67
2021/12/21 07:24:24;;;;;;;;;13.75;13.00;;;;;3.55;59.84;101908.38;5057747;28;45511;-68
2021/12/21 07:26:50;;;;;;;;;17.50;15.75;;;;;3.60;60.45;101917.25;5055935;28;45404;-68
2021/12/21 07:29:16;;;;;;;;;13.75;10.75;;;;;3.51;60.07;101911.59;5054142;28;45890;-68
2021/12/21 07:31:41;;;;;;;;;20.25;15.75;;;;;3.56;59.93;101925.66;5053568;28;45821;-68
2021/12/21 07:34:07;;;;;;;;;16.75;14.75;;;;;3.60;60.07;101927.59;5073475;28;45524;-68
2021/12/21 07:36:34;;;;;;;;;17.50;16.50;;;;;3.61;59.88;101942.34;5073344;27;45474;-67
2021/12/21 07:39:01;;;;;;;;;16.75;14.00;;;;;3.52;60.99;101941.91;5074270;27;45538;-68
2021/12/21 07:41:27;;;;;;;;;18.00;15.00;;;;;3.24;60.61;101893.00;5073432;27;46100;-67
2021/12/21 07:43:52;;;;;;;;;16.75;14.00;;;;;3.50;60.38;101941.81;5073206;27;45464;-68
2021/12/21 07:46:18;;;;;;;;;14.00;13.00;;;;;3.51;60.18;101929.75;5072248;28;45418;-68
2021/12/21 07:48:44;;;;;;;;;18.50;14.25;;;;;3.51;59.85;101927.16;5073693;27;45511;-67
2021/12/21 07:51:10;;;;;;;;;16.50;13.50;;;;;3.57;59.64;101930.06;5073959;27;45479;-66
2021/12/21 07:53:36;;;;;;;;;14.50;12.75;;;;;3.51;59.91;101941.00;5075962;28;45847;-67
2021/12/21 07:56:03;;;;;;;;;19.00;14.00;;;;;3.52;59.54;101941.91;5080515;27;45507;-67
2021/12/21 07:58:29;;;;;;;;;17.75;15.75;;;;;3.46;60.27;101934.69;5078442;28;45303;-68
2021/12/21 08:01:00;;;;;;;;;16.00;15.25;;;;;3.51;59.28;101937.50;5109762;27;46795;-67
2021/12/21 08:03:26;;;;;;;;;22.50;16.75;;;;;3.55;60.19;101940.34;5076688;27;45860;-68
2021/12/21 08:05:55;;;;;;;;;6.50;1.75;;;;;3.54;59.78;101938.56;5076833;28;45417;-69
2021/12/21 08:08:23;;;;;;;;;20.25;15.25;;;;;3.54;59.43;101946.34;5076945;27;45462;-67
2021/12/21 08:10:53;;;;;;;;;15.75;13.00;;;;;3.52;59.85;101931.53;5076657;27;46652;-68
2021/12/21 08:13:19;;;;;;;;;18.50;17.00;;;;;3.60;59.55;101936.25;5076750;27;45496;-67
2021/12/21 19:41:53;;;;;;;;;48.33;35.00;;;;;1.68;68.58;101975.16;5085872;27;46614;-68
2021/12/21 19:44:19;;;;;;;;;46.33;36.67;;;;;1.90;68.72;101974.69;5069455;27;45748;-68
2021/12/21 19:46:45;;;;;;;;;45.67;34.33;;;;;1.94;67.90;101951.59;5068955;28;45467;-68
2021/12/21 19:49:10;;;;;;;;;43.67;35.67;;;;;2.33;67.53;101991.72;5073697;28;45398;-67
2021/12/21 19:51:36;;;;;;;;;53.00;41.00;;;;;2.47;66.83;101980.44;5073934;28;45622;-67
2021/12/21 19:54:02;;;;;;;;;54.00;40.00;;;;;2.59;65.95;101980.22;5074497;28;45593;-67
2021/12/21 19:56:30;;;;;;;;;46.50;39.50;;;;;2.72;66.39;101984.34;5074987;28;45494;-67
2021/12/21 19:58:56;;;;;;;;;52.75;42.50;;;;;2.79;65.29;101983.88;5071496;27;45503;-68
2021/12/21 20:01:21;;;;;;;;;51.25;39.50;;;;;2.93;65.53;101992.38;5060699;28;45308;-66
2021/12/21 20:03:47;;;;;;;;;50.00;39.00;;;;;3.06;65.15;101996.50;5068860;28;45705;-68
2021/12/21 20:06:13;;;;;;;;;53.00;42.00;;;;;3.13;64.45;101988.22;5073406;28;45436;-66
2021/12/21 20:08:40;;;;;;;;;50.00;41.33;;;;;3.25;64.19;101987.97;5074289;28;45519;-69
2021/12/21 20:11:20;;;;;;;;;52.33;41.00;;;;;3.28;64.10;101977.81;5068951;28;46459;-67
2021/12/21 20:13:53;;;;;;;;;48.00;39.33;;;;;3.35;63.74;101988.56;5069257;28;45577;-68
2021/12/21 20:16:22;;;;;;;;;47.25;37.50;;;;;3.44;63.44;101995.91;5060641;27;45516;-68
2021/12/21 20:18:49;;;;;;;;;49.67;39.33;;;;;3.55;63.45;101999.03;5071128;27;45607;-67
2021/12/21 20:21:15;;;;;;;;;47.25;38.25;;;;;3.56;62.93;101998.22;5069724;28;46147;-68
2021/12/21 20:23:43;;;;;;;;;46.75;38.75;;;;;3.63;62.36;101995.16;5078974;27;45779;-68
2021/12/21 20:26:09;;;;;;;;;52.75;43.00;;;;;3.55;62.13;101976.59;5066283;27;45463;-67
2021/12/21 20:28:38;;;;;;;;;56.00;42.67;;;;;3.55;61.92;101989.56;5067858;28;45433;-69
2021/12/21 20:31:07;;;;;;;;;44.50;35.50;;;;;3.46;62.66;101973.53;5066772;28;46243;-67
2021/12/21 20:33:33;;;;;;;;;51.00;43.00;;;;;3.50;61.98;101991.03;5065667;28;45447;-68
2021/12/21 20:35:59;;;;;;;;;55.00;40.67;;;;;3.44;62.27;101995.00;5067156;28;45485;-67
2021/12/21 20:38:24;;;;;;;;;57.33;46.00;;;;;3.42;61.63;102001.78;5066517;28;45938;-68
2021/12/21 20:40:51;;;;;;;;;57.00;43.33;;;;;3.32;63.35;101996.16;5080837;27;46071;-67
2021/12/21 20:43:18;;;;;;;;;63.50;42.75;;;;;3.33;62.79;102005.72;5089732;27;45581;-67
2021/12/21 20:45:47;;;;;;;;;57.67;45.33;;;;;3.39;62.61;102002.53;5072606;27;45460;-67
2021/12/21 20:48:15;;;;;;;;;53.33;43.67;;;;;3.35;63.08;101998.91;5087258;27;45985;-68
2021/12/21 20:50:43;;;;;;;;;61.67;46.33;;;;;3.18;61.94;101992.84;5090759;27;46210;-66
2021/12/21 20:53:10;;;;;;;;;58.00;43.33;;;;;3.15;62.94;102002.16;5069531;27;45436;-66
2021/12/21 20:55:38;;;;;;;;;52.33;42.00;;;;;3.11;63.34;102001.13;5074136;28;45449;-70
2021/12/21 20:58:05;;;;;;;;;50.67;43.00;;;;;3.15;62.54;101999.56;5076320;27;45625;-67
2021/12/21 21:00:31;;;;;;;;;56.00;43.33;;;;;3.15;63.44;101996.97;5079829;28;46223;-67
2021/12/21 21:02:57;;;;;;;;;54.67;43.00;;;;;3.05;62.97;101999.91;5078371;28;45346;-67
2021/12/21 21:05:23;;;;;;;;;53.67;41.67;;;;;2.98;63.31;101991.78;5075515;28;45400;-68
2021/12/21 21:07:50;;;;;;;;;57.00;43.00;;;;;3.06;62.91;101997.41;5075983;28;45648;-67
2021/12/21 21:10:18;;;;;;;;;55.00;45.00;;;;;3.12;62.59;101997.72;5074836;28;46044;-67
2021/12/21 21:12:44;;;;;;;;;55.33;43.33;;;;;3.12;63.74;102002.88;5075038;28;45446;-65
2021/12/21 21:15:11;;;;;;;;;56.00;45.00;;;;;3.21;63.42;101997.31;5075739;28;46404;-68
2021/12/21 21:17:37;;;;;;;;;60.33;44.33;;;;;3.26;63.43;101995.84;5075244;28;45431;-68
2021/12/21 21:20:10;;;;;;;;;59.67;45.00;;;;;3.15;62.88;101979.72;5079809;28;46281;-67
2021/12/21 21:22:36;;;;;;;;;55.33;44.67;;;;;3.23;62.48;101989.59;5076523;28;45442;-67
2021/12/21 21:25:04;;;;;;;;;59.67;45.33;;;;;2.92;62.53;101950.09;5075216;28;45541;-67
2021/12/21 21:27:30;;;;;;;;;49.33;41.00;;;;;3.10;62.83;101999.31;5074878;28;45320;-66
2021/12/21 21:29:57;;;;;;;;;54.33;44.33;;;;;3.15;63.18;101996.97;5075011;28;46419;-68
2021/12/21 21:32:23;;;;;;;;;60.67;47.00;;;;;3.01;62.89;101991.06;5073350;28;45432;-66
2021/12/21 21:34:49;;;;;;;;;58.00;47.00;;;;;2.94;63.74;101987.28;5075065;28;45710;-67
2021/12/21 21:37:15;;;;;;;;;55.00;43.67;;;;;2.94;63.79;101996.72;5074716;27;45396;-67
2021/12/21 21:39:42;;;;;;;;;65.33;50.67;;;;;2.76;64.37;101976.84;5075293;28;45510;-67
2021/12/21 21:42:10;;;;;;;;;52.67;44.00;;;;;2.76;63.44;101988.88;5075892;28;45619;-68
2021/12/21 21:44:35;;;;;;;;;54.00;44.33;;;;;2.72;64.70;101995.59;5079992;28;45577;-68
2021/12/21 21:47:01;;;;;;;;;57.33;45.00;;;;;2.65;64.03;101985.72;5082569;28;45200;-67
2021/12/21 21:49:27;;;;;;;;;56.33;45.00;;;;;2.57;64.48;101983.53;5082738;28;45432;-67
2021/12/21 21:51:53;;;;;;;;;58.00;44.00;;;;;2.48;64.80;101979.63;5076024;27;45252;-66
2021/12/21 21:54:20;;;;;;;;;58.00;44.00;;;;;2.41;64.48;101976.63;5074693;28;45427;-67
2021/12/21 21:56:45;;;;;;;;;55.33;42.00;;;;;2.54;64.41;101984.25;5060491;28;45452;-67
2021/12/21 21:59:11;;;;;;;;;59.33;48.00;;;;;2.55;65.04;101986.03;5058926;28;45738;-68
2021/12/21 22:01:40;;;;;;;;;59.00;45.67;;;;;2.57;65.00;101984.41;5054498;28;45429;-68
2021/12/21 22:04:07;;;;;;;;;56.33;44.33;;;;;2.51;64.71;101981.47;5061834;28;45375;-66
2021/12/21 22:06:35;;;;;;;;;65.67;50.33;;;;;2.35;65.02;101956.50;5075623;27;45530;-66
2021/12/21 22:09:01;;;;;;;;;62.00;48.67;;;;;2.42;64.70;101957.69;5054156;28;45966;-64
2021/12/21 22:11:27;;;;;;;;;61.33;48.00;;;;;2.32;65.60;101966.66;5097889;27;45452;-66
2021/12/21 22:13:53;;;;;;;;;63.00;50.00;;;;;2.34;65.67;101973.69;5064538;28;45719;-68
2021/12/21 22:16:20;;;;;;;;;66.67;51.33;;;;;2.45;65.91;101969.13;5067981;28;45578;-67
2021/12/21 22:18:45;;;;;;;;;59.67;46.00;;;;;2.58;64.98;101973.25;5071790;28;46214;-67
2021/12/21 22:21:12;;;;;;;;;60.67;47.33;;;;;2.59;65.09;101968.97;5075040;28;45507;-68
2021/12/21 22:23:42;;;;;;;;;60.33;46.67;;;;;2.62;65.11;101980.38;5074413;28;45552;-66
2021/12/21 22:26:12;;;;;;;;;63.00;48.00;;;;;2.59;64.45;101971.53;5076612;28;45783;-68
2021/12/21 22:28:39;;;;;;;;;55.33;40.33;;;;;2.58;64.71;101972.38;5075356;28;45549;-66
2021/12/21 22:31:11;;;;;;;;;59.00;47.67;;;;;2.58;64.67;101967.19;5074740;28;45541;-67
2021/12/21 22:33:39;;;;;;;;;54.67;45.33;;;;;2.52;65.12;101970.34;5075268;28;45430;-67
2021/12/21 22:36:05;;;;;;;;;60.67;43.67;;;;;2.44;64.94;101975.09;5075310;28;45847;-67
2021/12/21 22:38:32;;;;;;;;;53.00;42.00;;;;;2.29;66.09;101959.63;5073811;28;45459;-66
2021/12/21 22:40:57;;;;;;;;;62.67;45.33;;;;;2.24;65.73;101937.81;5075752;27;45433;-67
2021/12/21 22:43:23;;;;;;;;;61.33;47.00;;;;;2.16;65.70;101958.84;5076243;28;45539;-66
2021/12/21 22:45:49;;;;;;;;;54.67;43.67;;;;;2.18;65.17;101962.41;5055915;28;45480;-66
2021/12/21 22:48:15;;;;;;;;;66.33;53.00;;;;;2.12;66.29;101973.31;5073984;28;45878;-68
2021/12/21 22:50:43;;;;;;;;;62.67;50.67;;;;;2.03;66.82;101970.22;5074292;28;45303;-67
2021/12/21 22:53:10;;;;;;;;;68.67;53.00;;;;;1.98;66.13;101966.47;5073951;28;45609;-66
2021/12/21 22:55:36;;;;;;;;;63.67;50.67;;;;;1.93;66.37;101963.63;5073717;28;45676;-68
2021/12/21 22:58:03;;;;;;;;;70.67;53.67;;;;;1.94;65.95;101975.75;5073802;27;45489;-68
2021/12/21 23:00:32;;;;;;;;;69.67;51.33;;;;;1.78;66.87;101955.91;5088964;27;45414;-67
2021/12/21 23:02:57;;;;;;;;;74.00;55.67;;;;;1.82;66.18;101981.09;5073870;28;45959;-67
2021/12/21 23:05:23;;;;;;;;;78.00;58.67;;;;;1.75;66.35;101981.53;5077172;28;45473;-67
2021/12/21 23:07:49;;;;;;;;;64.67;49.33;;;;;1.65;66.78;101984.41;5073222;28;45976;-68
2021/12/21 23:10:15;;;;;;;;;68.00;53.00;;;;;1.53;67.16;101966.50;5073649;28;45455;-67
2021/12/21 23:12:41;;;;;;;;;69.00;54.67;;;;;1.53;66.72;101989.75;5076024;27;45572;-67
2021/12/21 23:15:07;;;;;;;;;72.67;56.00;;;;;1.41;67.24;101976.13;5074606;28;45394;-67
2021/12/21 23:17:33;;;;;;;;;71.00;53.33;;;;;1.36;68.41;101981.00;5072984;28;45393;-67
2021/12/21 23:20:00;;;;;;;;;70.33;51.67;;;;;1.31;68.71;101989.28;5076966;28;45372;-66
2021/12/21 23:22:26;;;;;;;;;63.00;52.33;;;;;1.12;68.99;101984.72;5088830;27;45520;-68
2021/12/21 23:24:52;;;;;;;;;70.00;52.00;;;;;1.25;68.42;101995.84;5074144;28;45367;-68
2021/12/21 23:27:18;;;;;;;;;68.33;50.33;;;;;1.14;68.20;101975.34;5072964;28;45766;-67
2021/12/21 23:29:44;;;;;;;;;67.33;51.00;;;;;1.20;69.01;101989.53;5076188;28;45424;-68
2021/12/21 23:32:10;;;;;;;;;68.00;51.33;;;;;1.17;68.40;101989.34;5077942;28;45307;-68
2021/12/21 23:34:37;;;;;;;;;64.33;49.00;;;;;1.17;68.75;101983.31;5077871;28;45617;-66
2021/12/21 23:37:04;;;;;;;;;61.00;47.67;;;;;1.15;68.51;101988.38;5075322;28;45434;-69